sensor_id;sensor_type;location;lat;lon;timestamp;pressure;altitude;pressure_sealevel;temperature;humidity
60817;BME280;51921;51.518;-3.188;2023-05-08T00:00:40;101627.32;;;14.51;73.03
60817;BME280;51921;51.518;-3.188;2023-05-08T00:03:05;101626.55;;;13.96;74.67
60817;BME280;51921;51.518;-3.188;2023-05-08T00:05:30;101627.10;;;14.98;71.27
60817;BME280;51921;51.518;-3.188;2023-05-08T00:07:56;101629.84;;;14.70;70.62
60817;BME280;51921;51.518;-3.188;2023-05-08T00:10:22;101630.44;;;13.73;73.88
60817;BME280;51921;51.518;-3.188;2023-05-08T00:12:47;101630.21;;;13.67;73.89
60817;BME280;51921;51.518;-3.188;2023-05-08T00:15:12;101625.30;;;13.58;75.64
60817;BME280;51921;51.518;-3.188;2023-05-08T00:17:38;101624.39;;;14.01;73.67
60817;BME280;51921;51.518;-3.188;2023-05-08T00:20:04;101630.54;;;14.73;71.60
60817;BME280;51921;51.518;-3.188;2023-05-08T00:22:29;101624.86;;;13.98;73.53
60817;BME280;51921;51.518;-3.188;2023-05-08T00:24:54;101622.88;;;13.91;73.44
60817;BME280;51921;51.518;-3.188;2023-05-08T00:27:19;101621.83;;;14.15;72.32
60817;BME280;51921;51.518;-3.188;2023-05-08T00:29:45;101621.47;;;13.77;75.34
60817;BME280;51921;51.518;-3.188;2023-05-08T00:32:10;101621.24;;;14.10;74.47
60817;BME280;51921;51.518;-3.188;2023-05-08T00:34:37;101618.28;;;13.86;76.72
60817;BME280;51921;51.518;-3.188;2023-05-08T00:37:01;101621.37;;;13.86;75.57
60817;BME280;51921;51.518;-3.188;2023-05-08T00:39:26;101623.18;;;14.36;73.96
60817;BME280;51921;51.518;-3.188;2023-05-08T00:41:52;101622.17;;;14.51;73.57
60817;BME280;51921;51.518;-3.188;2023-05-08T00:44:17;101620.23;;;14.69;71.72
60817;BME280;51921;51.518;-3.188;2023-05-08T00:46:43;101618.48;;;14.88;70.74
60817;BME280;51921;51.518;-3.188;2023-05-08T00:49:08;101616.19;;;14.68;71.95
60817;BME280;51921;51.518;-3.188;2023-05-08T00:51:33;101612.40;;;15.12;71.50
60817;BME280;51921;51.518;-3.188;2023-05-08T00:53:59;101608.91;;;13.94;72.29
60817;BME280;51921;51.518;-3.188;2023-05-08T00:56:24;101602.95;;;14.54;70.81
60817;BME280;51921;51.518;-3.188;2023-05-08T00:58:50;101599.67;;;15.20;70.00
60817;BME280;51921;51.518;-3.188;2023-05-08T01:01:15;101596.45;;;11.97;80.85
60817;BME280;51921;51.518;-3.188;2023-05-08T01:03:42;101594.47;;;11.04;91.28
60817;BME280;51921;51.518;-3.188;2023-05-08T01:06:06;101590.89;;;10.36;95.81
60817;BME280;51921;51.518;-3.188;2023-05-08T01:08:31;101588.51;;;10.33;97.32
60817;BME280;51921;51.518;-3.188;2023-05-08T01:11:04;101585.83;;;9.61;100.00
60817;BME280;51921;51.518;-3.188;2023-05-08T01:13:29;101583.40;;;9.54;100.00
60817;BME280;51921;51.518;-3.188;2023-05-08T01:15:50;101579.56;;;9.18;100.00
60817;BME280;51921;51.518;-3.188;2023-05-08T01:18:16;101573.85;;;9.09;100.00
60817;BME280;51921;51.518;-3.188;2023-05-08T01:20:44;101572.99;;;10.68;100.00
60817;BME280;51921;51.518;-3.188;2023-05-08T01:28:09;101564.62;;;12.39;90.49
60817;BME280;51921;51.518;-3.188;2023-05-08T01:32:50;101559.70;;;10.50;98.82
60817;BME280;51921;51.518;-3.188;2023-05-08T01:35:20;101558.10;;;10.99;100.00
60817;BME280;51921;51.518;-3.188;2023-05-08T01:37:44;101553.62;;;12.72;92.18
60817;BME280;51921;51.518;-3.188;2023-05-08T01:40:11;101553.53;;;12.12;92.14
60817;BME280;51921;51.518;-3.188;2023-05-08T01:42:35;101553.40;;;10.37;100.00
60817;BME280;51921;51.518;-3.188;2023-05-08T01:44:59;101550.34;;;11.41;97.33
60817;BME280;51921;51.518;-3.188;2023-05-08T01:47:19;101550.68;;;9.69;100.00
60817;BME280;51921;51.518;-3.188;2023-05-08T01:49:46;101548.64;;;10.01;100.00
60817;BME280;51921;51.518;-3.188;2023-05-08T01:52:13;101548.38;;;12.16;95.12
60817;BME280;51921;51.518;-3.188;2023-05-08T01:54:40;101547.22;;;12.97;90.54
60817;BME280;51921;51.518;-3.188;2023-05-08T01:57:00;101545.16;;;13.93;85.92
60817;BME280;51921;51.518;-3.188;2023-05-08T01:59:26;101543.50;;;13.99;82.96
60817;BME280;51921;51.518;-3.188;2023-05-08T02:01:53;101534.87;;;12.05;88.10
60817;BME280;51921;51.518;-3.188;2023-05-08T02:04:16;101535.91;;;10.81;95.89
60817;BME280;51921;51.518;-3.188;2023-05-08T02:06:42;101534.09;;;11.95;94.79
60817;BME280;51921;51.518;-3.188;2023-05-08T02:09:09;101532.48;;;12.21;94.73
60817;BME280;51921;51.518;-3.188;2023-05-08T02:11:34;101530.28;;;12.21;92.30
60817;BME280;51921;51.518;-3.188;2023-05-08T02:13:58;101529.83;;;10.65;99.65
60817;BME280;51921;51.518;-3.188;2023-05-08T02:16:24;101531.43;;;11.34;99.40
60817;BME280;51921;51.518;-3.188;2023-05-08T02:18:51;101530.27;;;8.88;100.00
60817;BME280;51921;51.518;-3.188;2023-05-08T02:21:14;101534.18;;;9.51;100.00
60817;BME280;51921;51.518;-3.188;2023-05-08T02:23:40;101532.55;;;10.10;100.00
60817;BME280;51921;51.518;-3.188;2023-05-08T02:26:04;101528.17;;;9.49;100.00
60817;BME280;51921;51.518;-3.188;2023-05-08T02:28:30;101528.58;;;9.65;100.00
60817;BME280;51921;51.518;-3.188;2023-05-08T02:30:56;101522.48;;;11.28;100.00
60817;BME280;51921;51.518;-3.188;2023-05-08T02:33:22;101521.20;;;12.67;99.75
60817;BME280;51921;51.518;-3.188;2023-05-08T02:35:48;101522.55;;;13.06;92.69
60817;BME280;51921;51.518;-3.188;2023-05-08T02:38:13;101521.61;;;10.77;100.00
60817;BME280;51921;51.518;-3.188;2023-05-08T02:40:40;101522.15;;;9.96;100.00
60817;BME280;51921;51.518;-3.188;2023-05-08T02:43:03;101521.34;;;11.99;100.00
60817;BME280;51921;51.518;-3.188;2023-05-08T02:45:32;101521.47;;;12.38;96.82
60817;BME280;51921;51.518;-3.188;2023-05-08T02:48:00;101516.41;;;11.48;99.41
60817;BME280;51921;51.518;-3.188;2023-05-08T02:50:21;101512.99;;;11.71;98.38
60817;BME280;51921;51.518;-3.188;2023-05-08T02:52:47;101512.95;;;12.93;93.94
60817;BME280;51921;51.518;-3.188;2023-05-08T02:55:16;101508.87;;;12.73;94.03
60817;BME280;51921;51.518;-3.188;2023-05-08T02:57:41;101506.83;;;13.21;90.09
60817;BME280;51921;51.518;-3.188;2023-05-08T03:00:06;101508.44;;;12.91;90.56
60817;BME280;51921;51.518;-3.188;2023-05-08T03:02:32;101508.08;;;13.18;89.74
60817;BME280;51921;51.518;-3.188;2023-05-08T03:04:55;101510.73;;;13.00;88.68
60817;BME280;51921;51.518;-3.188;2023-05-08T03:07:24;101514.36;;;12.81;88.42
60817;BME280;51921;51.518;-3.188;2023-05-08T03:09:46;101511.11;;;13.60;85.52
60817;BME280;51921;51.518;-3.188;2023-05-08T03:12:11;101512.81;;;13.81;84.48
60817;BME280;51921;51.518;-3.188;2023-05-08T03:14:38;101512.31;;;13.59;83.91
60817;BME280;51921;51.518;-3.188;2023-05-08T03:16:59;101507.45;;;13.27;84.17
60817;BME280;51921;51.518;-3.188;2023-05-08T03:19:27;101505.30;;;13.35;83.87
60817;BME280;51921;51.518;-3.188;2023-05-08T03:21:50;101503.99;;;13.01;87.87
60817;BME280;51921;51.518;-3.188;2023-05-08T03:24:16;101508.13;;;12.36;89.93
60817;BME280;51921;51.518;-3.188;2023-05-08T03:26:41;101506.57;;;12.96;88.04
60817;BME280;51921;51.518;-3.188;2023-05-08T03:29:06;101511.92;;;13.16;84.55
60817;BME280;51921;51.518;-3.188;2023-05-08T03:31:31;101510.69;;;12.00;89.46
60817;BME280;51921;51.518;-3.188;2023-05-08T03:33:56;101509.27;;;11.51;92.50
60817;BME280;51921;51.518;-3.188;2023-05-08T03:36:22;101508.20;;;12.44;89.31
60817;BME280;51921;51.518;-3.188;2023-05-08T03:38:48;101513.48;;;11.80;92.61
60817;BME280;51921;51.518;-3.188;2023-05-08T03:41:12;101507.43;;;13.01;88.39
60817;BME280;51921;51.518;-3.188;2023-05-08T03:43:38;101502.95;;;11.06;96.07
60817;BME280;51921;51.518;-3.188;2023-05-08T03:46:04;101504.73;;;11.75;92.28
60817;BME280;51921;51.518;-3.188;2023-05-08T03:48:31;101499.85;;;12.58;89.89
60817;BME280;51921;51.518;-3.188;2023-05-08T03:50:55;101505.06;;;12.35;89.85
60817;BME280;51921;51.518;-3.188;2023-05-08T03:53:20;101503.21;;;12.77;90.87
60817;BME280;51921;51.518;-3.188;2023-05-08T03:55:45;101504.15;;;11.78;93.57
60817;BME280;51921;51.518;-3.188;2023-05-08T03:58:17;101497.96;;;11.57;95.85
60817;BME280;51921;51.518;-3.188;2023-05-08T04:00:44;101500.44;;;10.94;100.00
60817;BME280;51921;51.518;-3.188;2023-05-08T04:03:12;101501.80;;;11.26;100.00
60817;BME280;51921;51.518;-3.188;2023-05-08T04:05:34;101503.07;;;11.05;100.00
60817;BME280;51921;51.518;-3.188;2023-05-08T04:07:56;101502.80;;;11.08;100.00
60817;BME280;51921;51.518;-3.188;2023-05-08T04:10:23;101498.66;;;11.57;100.00
60817;BME280;51921;51.518;-3.188;2023-05-08T04:12:54;101500.25;;;11.11;100.00
60817;BME280;51921;51.518;-3.188;2023-05-08T04:15:11;101499.70;;;11.34;100.00
60817;BME280;51921;51.518;-3.188;2023-05-08T04:17:39;101502.51;;;10.51;100.00
60817;BME280;51921;51.518;-3.188;2023-05-08T04:20:03;101498.32;;;12.41;100.00
60817;BME280;51921;51.518;-3.188;2023-05-08T04:22:26;101493.82;;;10.49;100.00
60817;BME280;51921;51.518;-3.188;2023-05-08T04:24:51;101494.53;;;10.91;100.00
60817;BME280;51921;51.518;-3.188;2023-05-08T04:27:16;101491.61;;;10.53;100.00
60817;BME280;51921;51.518;-3.188;2023-05-08T04:29:41;101486.19;;;12.34;100.00
60817;BME280;51921;51.518;-3.188;2023-05-08T04:32:08;101484.37;;;11.56;100.00
60817;BME280;51921;51.518;-3.188;2023-05-08T04:34:32;101486.05;;;11.35;100.00
60817;BME280;51921;51.518;-3.188;2023-05-08T04:36:57;101487.84;;;11.73;100.00
60817;BME280;51921;51.518;-3.188;2023-05-08T04:39:23;101488.51;;;12.28;100.00
60817;BME280;51921;51.518;-3.188;2023-05-08T04:41:48;101490.45;;;12.04;100.00
60817;BME280;51921;51.518;-3.188;2023-05-08T04:44:14;101489.78;;;12.43;100.00
60817;BME280;51921;51.518;-3.188;2023-05-08T04:46:39;101488.26;;;12.99;100.00
60817;BME280;51921;51.518;-3.188;2023-05-08T04:49:04;101486.24;;;12.80;99.72
60817;BME280;51921;51.518;-3.188;2023-05-08T04:51:29;101489.62;;;12.08;100.00
60817;BME280;51921;51.518;-3.188;2023-05-08T04:53:55;101487.53;;;11.72;100.00
60817;BME280;51921;51.518;-3.188;2023-05-08T04:56:20;101489.89;;;13.15;97.94
60817;BME280;51921;51.518;-3.188;2023-05-08T04:58:46;101486.60;;;13.09;98.47
60817;BME280;51921;51.518;-3.188;2023-05-08T05:01:11;101483.87;;;12.98;95.71
60817;BME280;51921;51.518;-3.188;2023-05-08T05:03:37;101485.46;;;13.48;95.72
60817;BME280;51921;51.518;-3.188;2023-05-08T05:06:02;101483.20;;;13.42;95.63
60817;BME280;51921;51.518;-3.188;2023-05-08T05:08:27;101482.33;;;12.71;98.26
60817;BME280;51921;51.518;-3.188;2023-05-08T05:10:53;101482.85;;;13.30;94.39
60817;BME280;51921;51.518;-3.188;2023-05-08T05:13:18;101482.30;;;14.02;91.19
60817;BME280;51921;51.518;-3.188;2023-05-08T05:15:44;101482.34;;;13.40;94.42
60817;BME280;51921;51.518;-3.188;2023-05-08T05:18:09;101481.40;;;13.97;91.96
60817;BME280;51921;51.518;-3.188;2023-05-08T05:20:35;101480.16;;;13.90;90.27
60817;BME280;51921;51.518;-3.188;2023-05-08T05:23:00;101480.46;;;14.06;90.12
60817;BME280;51921;51.518;-3.188;2023-05-08T05:25:26;101481.22;;;14.23;89.19
60817;BME280;51921;51.518;-3.188;2023-05-08T05:27:51;101481.06;;;14.00;89.35
60817;BME280;51921;51.518;-3.188;2023-05-08T05:30:16;101480.49;;;13.90;88.37
60817;BME280;51921;51.518;-3.188;2023-05-08T05:32:42;101478.54;;;13.26;92.34
60817;BME280;51921;51.518;-3.188;2023-05-08T05:35:09;101478.83;;;12.75;96.78
60817;BME280;51921;51.518;-3.188;2023-05-08T05:37:32;101485.85;;;13.71;91.47
60817;BME280;51921;51.518;-3.188;2023-05-08T05:39:58;101485.08;;;12.85;94.99
60817;BME280;51921;51.518;-3.188;2023-05-08T05:42:24;101489.00;;;14.29;88.69
60817;BME280;51921;51.518;-3.188;2023-05-08T05:44:49;101490.19;;;13.46;91.33
60817;BME280;51921;51.518;-3.188;2023-05-08T05:47:14;101487.92;;;14.19;88.56
60817;BME280;51921;51.518;-3.188;2023-05-08T05:49:40;101488.54;;;14.21;88.57
60817;BME280;51921;51.518;-3.188;2023-05-08T05:52:05;101491.86;;;13.95;90.69
60817;BME280;51921;51.518;-3.188;2023-05-08T05:54:30;101492.45;;;14.47;87.41
60817;BME280;51921;51.518;-3.188;2023-05-08T05:56:56;101491.75;;;13.28;92.11
60817;BME280;51921;51.518;-3.188;2023-05-08T05:59:21;101490.29;;;12.99;95.26
60817;BME280;51921;51.518;-3.188;2023-05-08T06:01:47;101490.50;;;13.18;94.27
60817;BME280;51921;51.518;-3.188;2023-05-08T06:04:12;101483.47;;;12.20;98.87
60817;BME280;51921;51.518;-3.188;2023-05-08T06:06:38;101485.71;;;11.90;100.00
60817;BME280;51921;51.518;-3.188;2023-05-08T06:09:03;101485.79;;;10.48;100.00
60817;BME280;51921;51.518;-3.188;2023-05-08T06:11:29;101485.36;;;12.14;100.00
60817;BME280;51921;51.518;-3.188;2023-05-08T06:13:54;101482.05;;;12.41;100.00
60817;BME280;51921;51.518;-3.188;2023-05-08T06:16:20;101487.90;;;12.12;100.00
60817;BME280;51921;51.518;-3.188;2023-05-08T06:18:45;101490.19;;;11.68;100.00
60817;BME280;51921;51.518;-3.188;2023-05-08T06:21:10;101487.85;;;11.21;100.00
60817;BME280;51921;51.518;-3.188;2023-05-08T06:23:35;101482.33;;;11.55;100.00
60817;BME280;51921;51.518;-3.188;2023-05-08T06:26:01;101481.59;;;11.96;100.00
60817;BME280;51921;51.518;-3.188;2023-05-08T06:28:26;101483.01;;;11.28;100.00
60817;BME280;51921;51.518;-3.188;2023-05-08T06:30:52;101484.65;;;11.36;100.00
60817;BME280;51921;51.518;-3.188;2023-05-08T06:33:17;101484.20;;;11.15;100.00
60817;BME280;51921;51.518;-3.188;2023-05-08T06:35:45;101481.44;;;11.41;100.00
60817;BME280;51921;51.518;-3.188;2023-05-08T06:38:08;101481.80;;;11.01;100.00
60817;BME280;51921;51.518;-3.188;2023-05-08T06:40:33;101481.70;;;11.72;100.00
60817;BME280;51921;51.518;-3.188;2023-05-08T06:42:58;101479.92;;;12.14;100.00
60817;BME280;51921;51.518;-3.188;2023-05-08T06:45:23;101480.12;;;11.50;100.00
60817;BME280;51921;51.518;-3.188;2023-05-08T06:47:49;101477.01;;;12.64;100.00
60817;BME280;51921;51.518;-3.188;2023-05-08T06:50:14;101476.02;;;12.62;100.00
60817;BME280;51921;51.518;-3.188;2023-05-08T06:52:39;101469.36;;;11.62;100.00
60817;BME280;51921;51.518;-3.188;2023-05-08T06:55:05;101468.36;;;10.94;100.00
60817;BME280;51921;51.518;-3.188;2023-05-08T06:57:30;101467.25;;;11.53;100.00
60817;BME280;51921;51.518;-3.188;2023-05-08T06:59:56;101469.11;;;12.17;100.00
60817;BME280;51921;51.518;-3.188;2023-05-08T07:02:21;101468.20;;;12.35;100.00
60817;BME280;51921;51.518;-3.188;2023-05-08T07:04:48;101468.24;;;12.33;100.00
60817;BME280;51921;51.518;-3.188;2023-05-08T07:07:12;101463.77;;;11.70;100.00
60817;BME280;51921;51.518;-3.188;2023-05-08T07:09:37;101461.57;;;11.96;100.00
60817;BME280;51921;51.518;-3.188;2023-05-08T07:12:03;101464.30;;;11.74;100.00
60817;BME280;51921;51.518;-3.188;2023-05-08T07:14:29;101460.08;;;12.08;100.00
60817;BME280;51921;51.518;-3.188;2023-05-08T07:16:53;101460.53;;;11.92;100.00
60817;BME280;51921;51.518;-3.188;2023-05-08T07:19:19;101463.98;;;11.10;100.00
60817;BME280;51921;51.518;-3.188;2023-05-08T07:21:44;101460.46;;;11.25;100.00
60817;BME280;51921;51.518;-3.188;2023-05-08T07:24:10;101463.08;;;10.65;100.00
60817;BME280;51921;51.518;-3.188;2023-05-08T07:26:35;101463.79;;;10.80;100.00
60817;BME280;51921;51.518;-3.188;2023-05-08T07:29:01;101464.36;;;10.99;100.00
60817;BME280;51921;51.518;-3.188;2023-05-08T07:31:26;101461.80;;;11.30;100.00
60817;BME280;51921;51.518;-3.188;2023-05-08T07:33:52;101461.92;;;11.29;100.00
60817;BME280;51921;51.518;-3.188;2023-05-08T07:36:17;101466.48;;;11.44;100.00
60817;BME280;51921;51.518;-3.188;2023-05-08T07:38:43;101462.16;;;10.97;100.00
60817;BME280;51921;51.518;-3.188;2023-05-08T07:41:08;101457.81;;;11.31;100.00
60817;BME280;51921;51.518;-3.188;2023-05-08T07:43:34;101460.05;;;10.88;100.00
60817;BME280;51921;51.518;-3.188;2023-05-08T07:45:59;101461.62;;;11.46;100.00
60817;BME280;51921;51.518;-3.188;2023-05-08T07:48:24;101462.97;;;11.15;100.00
60817;BME280;51921;51.518;-3.188;2023-05-08T07:50:50;101460.64;;;11.71;100.00
60817;BME280;51921;51.518;-3.188;2023-05-08T07:53:15;101460.84;;;12.30;100.00
60817;BME280;51921;51.518;-3.188;2023-05-08T07:55:40;101458.42;;;11.87;100.00
60817;BME280;51921;51.518;-3.188;2023-05-08T07:58:06;101454.73;;;12.25;100.00
60817;BME280;51921;51.518;-3.188;2023-05-08T08:00:31;101454.77;;;11.63;100.00
60817;BME280;51921;51.518;-3.188;2023-05-08T08:02:57;101456.74;;;11.08;100.00
60817;BME280;51921;51.518;-3.188;2023-05-08T08:05:22;101454.17;;;11.62;100.00
60817;BME280;51921;51.518;-3.188;2023-05-08T08:07:47;101454.87;;;11.74;100.00
60817;BME280;51921;51.518;-3.188;2023-05-08T08:10:13;101453.68;;;11.61;100.00
60817;BME280;51921;51.518;-3.188;2023-05-08T08:12:38;101456.71;;;11.76;100.00
60817;BME280;51921;51.518;-3.188;2023-05-08T08:15:05;101449.67;;;11.95;100.00
60817;BME280;51921;51.518;-3.188;2023-05-08T08:17:29;101445.37;;;12.63;100.00
60817;BME280;51921;51.518;-3.188;2023-05-08T08:19:54;101453.65;;;12.53;100.00
60817;BME280;51921;51.518;-3.188;2023-05-08T08:22:20;101445.69;;;12.23;100.00
60817;BME280;51921;51.518;-3.188;2023-05-08T08:24:45;101440.81;;;11.46;100.00
60817;BME280;51921;51.518;-3.188;2023-05-08T08:27:11;101432.93;;;12.40;100.00
60817;BME280;51921;51.518;-3.188;2023-05-08T08:29:36;101424.48;;;12.55;100.00
60817;BME280;51921;51.518;-3.188;2023-05-08T08:32:01;101413.94;;;11.64;100.00
60817;BME280;51921;51.518;-3.188;2023-05-08T08:34:27;101423.21;;;11.26;100.00
60817;BME280;51921;51.518;-3.188;2023-05-08T08:36:52;101429.79;;;10.88;100.00
60817;BME280;51921;51.518;-3.188;2023-05-08T08:39:18;101426.24;;;10.55;100.00
60817;BME280;51921;51.518;-3.188;2023-05-08T08:41:43;101419.35;;;11.82;100.00
60817;BME280;51921;51.518;-3.188;2023-05-08T08:44:09;101411.99;;;11.90;100.00
60817;BME280;51921;51.518;-3.188;2023-05-08T08:46:42;101407.03;;;11.15;100.00
60817;BME280;51921;51.518;-3.188;2023-05-08T08:49:03;101406.97;;;11.11;100.00
60817;BME280;51921;51.518;-3.188;2023-05-08T08:51:27;101414.39;;;11.67;100.00
60817;BME280;51921;51.518;-3.188;2023-05-08T08:53:57;101415.83;;;11.66;100.00
60817;BME280;51921;51.518;-3.188;2023-05-08T08:56:16;101415.33;;;12.03;100.00
60817;BME280;51921;51.518;-3.188;2023-05-08T08:58:46;101416.25;;;13.12;100.00
60817;BME280;51921;51.518;-3.188;2023-05-08T09:01:08;101421.13;;;13.53;100.00
60817;BME280;51921;51.518;-3.188;2023-05-08T09:03:32;101414.74;;;13.48;100.00
60817;BME280;51921;51.518;-3.188;2023-05-08T09:05:59;101409.65;;;12.71;100.00
60817;BME280;51921;51.518;-3.188;2023-05-08T09:08:23;101410.03;;;12.35;100.00
60817;BME280;51921;51.518;-3.188;2023-05-08T09:10:49;101414.51;;;12.27;100.00
60817;BME280;51921;51.518;-3.188;2023-05-08T09:13:14;101416.70;;;12.51;100.00
60817;BME280;51921;51.518;-3.188;2023-05-08T09:15:39;101419.53;;;12.04;100.00
60817;BME280;51921;51.518;-3.188;2023-05-08T09:18:05;101421.26;;;12.51;100.00
60817;BME280;51921;51.518;-3.188;2023-05-08T09:20:30;101421.70;;;13.01;100.00
60817;BME280;51921;51.518;-3.188;2023-05-08T09:22:57;101420.30;;;12.97;100.00
60817;BME280;51921;51.518;-3.188;2023-05-08T09:25:22;101417.54;;;11.93;100.00
60817;BME280;51921;51.518;-3.188;2023-05-08T09:27:46;101416.63;;;12.17;100.00
60817;BME280;51921;51.518;-3.188;2023-05-08T09:30:13;101426.58;;;13.10;100.00
60817;BME280;51921;51.518;-3.188;2023-05-08T09:32:39;101429.20;;;11.71;100.00
60817;BME280;51921;51.518;-3.188;2023-05-08T09:35:03;101425.40;;;11.30;100.00
60817;BME280;51921;51.518;-3.188;2023-05-08T09:37:29;101416.85;;;10.79;100.00
60817;BME280;51921;51.518;-3.188;2023-05-08T09:39:55;101413.69;;;12.38;100.00
60817;BME280;51921;51.518;-3.188;2023-05-08T09:42:21;101406.92;;;12.72;100.00
60817;BME280;51921;51.518;-3.188;2023-05-08T09:44:47;101405.10;;;12.13;100.00
60817;BME280;51921;51.518;-3.188;2023-05-08T09:47:12;101403.93;;;12.55;100.00
60817;BME280;51921;51.518;-3.188;2023-05-08T09:49:35;101403.58;;;12.15;100.00
60817;BME280;51921;51.518;-3.188;2023-05-08T09:52:01;101406.47;;;11.33;100.00
60817;BME280;51921;51.518;-3.188;2023-05-08T09:54:26;101405.45;;;12.48;100.00
60817;BME280;51921;51.518;-3.188;2023-05-08T09:56:52;101401.02;;;13.32;100.00
60817;BME280;51921;51.518;-3.188;2023-05-08T09:59:24;101396.87;;;12.15;100.00
60817;BME280;51921;51.518;-3.188;2023-05-08T10:01:43;101397.51;;;13.51;100.00
60817;BME280;51921;51.518;-3.188;2023-05-08T10:04:08;101396.09;;;12.61;100.00
60817;BME280;51921;51.518;-3.188;2023-05-08T10:06:33;101402.14;;;13.10;100.00
60817;BME280;51921;51.518;-3.188;2023-05-08T10:09:06;101391.14;;;12.86;100.00
60817;BME280;51921;51.518;-3.188;2023-05-08T10:11:24;101387.42;;;13.20;100.00
60817;BME280;51921;51.518;-3.188;2023-05-08T10:13:50;101382.91;;;13.73;100.00
60817;BME280;51921;51.518;-3.188;2023-05-08T10:16:16;101376.47;;;12.53;100.00
60817;BME280;51921;51.518;-3.188;2023-05-08T10:18:45;101376.73;;;13.48;100.00
60817;BME280;51921;51.518;-3.188;2023-05-08T10:21:07;101380.37;;;12.86;100.00
60817;BME280;51921;51.518;-3.188;2023-05-08T10:23:33;101380.10;;;11.99;100.00
60817;BME280;51921;51.518;-3.188;2023-05-08T10:26:03;101370.21;;;12.95;100.00
60817;BME280;51921;51.518;-3.188;2023-05-08T10:28:28;101359.45;;;12.25;100.00
60817;BME280;51921;51.518;-3.188;2023-05-08T10:30:48;101352.57;;;12.18;100.00
60817;BME280;51921;51.518;-3.188;2023-05-08T10:33:15;101360.05;;;13.01;100.00
60817;BME280;51921;51.518;-3.188;2023-05-08T10:35:39;101366.69;;;12.78;100.00
60817;BME280;51921;51.518;-3.188;2023-05-08T10:38:04;101365.31;;;13.60;100.00
60817;BME280;51921;51.518;-3.188;2023-05-08T10:40:29;101364.67;;;11.84;100.00
60817;BME280;51921;51.518;-3.188;2023-05-08T10:42:56;101368.33;;;12.66;100.00
60817;BME280;51921;51.518;-3.188;2023-05-08T10:45:20;101370.67;;;12.02;100.00
60817;BME280;51921;51.518;-3.188;2023-05-08T10:47:54;101374.68;;;11.87;100.00
60817;BME280;51921;51.518;-3.188;2023-05-08T10:50:21;101375.76;;;12.67;100.00
60817;BME280;51921;51.518;-3.188;2023-05-08T10:52:41;101367.37;;;12.70;100.00
60817;BME280;51921;51.518;-3.188;2023-05-08T10:55:18;101372.78;;;11.74;100.00
60817;BME280;51921;51.518;-3.188;2023-05-08T10:57:27;101376.04;;;12.26;100.00
60817;BME280;51921;51.518;-3.188;2023-05-08T10:59:53;101373.25;;;12.59;100.00
60817;BME280;51921;51.518;-3.188;2023-05-08T11:02:25;101365.57;;;12.30;100.00
60817;BME280;51921;51.518;-3.188;2023-05-08T11:04:44;101362.48;;;11.79;100.00
60817;BME280;51921;51.518;-3.188;2023-05-08T11:07:09;101361.60;;;11.92;100.00
60817;BME280;51921;51.518;-3.188;2023-05-08T11:09:45;101364.74;;;12.53;100.00
60817;BME280;51921;51.518;-3.188;2023-05-08T11:12:06;101371.24;;;12.58;100.00
60817;BME280;51921;51.518;-3.188;2023-05-08T11:14:26;101373.74;;;12.43;100.00
60817;BME280;51921;51.518;-3.188;2023-05-08T11:17:02;101373.89;;;12.29;100.00
60817;BME280;51921;51.518;-3.188;2023-05-08T11:19:17;101367.15;;;12.94;100.00
60817;BME280;51921;51.518;-3.188;2023-05-08T11:24:09;101360.77;;;12.26;100.00
60817;BME280;51921;51.518;-3.188;2023-05-08T11:26:38;101362.36;;;11.65;100.00
60817;BME280;51921;51.518;-3.188;2023-05-08T11:28:58;101352.46;;;11.74;100.00
60817;BME280;51921;51.518;-3.188;2023-05-08T11:31:23;101350.56;;;12.45;100.00
60817;BME280;51921;51.518;-3.188;2023-05-08T11:33:49;101349.91;;;11.83;100.00
60817;BME280;51921;51.518;-3.188;2023-05-08T11:36:15;101350.43;;;13.16;100.00
60817;BME280;51921;51.518;-3.188;2023-05-08T11:38:40;101349.27;;;13.15;100.00
60817;BME280;51921;51.518;-3.188;2023-05-08T11:41:06;101344.14;;;13.32;100.00
60817;BME280;51921;51.518;-3.188;2023-05-08T11:45:59;101346.86;;;12.85;100.00
60817;BME280;51921;51.518;-3.188;2023-05-08T11:48:21;101339.62;;;13.10;100.00
60817;BME280;51921;51.518;-3.188;2023-05-08T11:50:47;101334.10;;;12.72;100.00
60817;BME280;51921;51.518;-3.188;2023-05-08T11:53:12;101330.97;;;13.23;100.00
60817;BME280;51921;51.518;-3.188;2023-05-08T11:55:38;101326.64;;;14.52;100.00
60817;BME280;51921;51.518;-3.188;2023-05-08T11:58:11;101326.30;;;13.95;100.00
60817;BME280;51921;51.518;-3.188;2023-05-08T12:00:28;101330.33;;;14.84;100.00
60817;BME280;51921;51.518;-3.188;2023-05-08T12:02:54;101335.73;;;14.83;100.00
60817;BME280;51921;51.518;-3.188;2023-05-08T12:05:25;101340.68;;;14.31;100.00
60817;BME280;51921;51.518;-3.188;2023-05-08T12:07:45;101347.79;;;14.63;100.00
60817;BME280;51921;51.518;-3.188;2023-05-08T12:10:10;101343.50;;;14.58;100.00
60817;BME280;51921;51.518;-3.188;2023-05-08T12:12:36;101336.98;;;14.75;100.00
60817;BME280;51921;51.518;-3.188;2023-05-08T12:15:05;101334.15;;;13.99;100.00
60817;BME280;51921;51.518;-3.188;2023-05-08T12:17:26;101336.88;;;14.07;100.00
60817;BME280;51921;51.518;-3.188;2023-05-08T12:19:54;101336.41;;;13.46;100.00
60817;BME280;51921;51.518;-3.188;2023-05-08T12:22:17;101331.63;;;13.25;100.00
60817;BME280;51921;51.518;-3.188;2023-05-08T12:24:43;101320.88;;;13.80;100.00
60817;BME280;51921;51.518;-3.188;2023-05-08T12:27:08;101308.77;;;14.00;100.00
60817;BME280;51921;51.518;-3.188;2023-05-08T12:29:35;101298.10;;;14.21;100.00
60817;BME280;51921;51.518;-3.188;2023-05-08T12:31:59;101302.08;;;15.19;100.00
60817;BME280;51921;51.518;-3.188;2023-05-08T12:34:24;101308.16;;;15.02;100.00